Time;durP1;ratioP1;P1;durP2;ratioP2;P2;SDS_P1;SDS_P2;PMS_P1;PMS_P2;Temp;Humidity;BMP_temperature;BMP_pressure;BME280_temperature;BME280_humidity;BME280_pressure;Samples;Min_cycle;Max_cycle;Signal;HPM_P1;HPM_P2
2023/04/26 00:02:12;;;;;;;3.67;1.70;;;10.50;45.30;;;;;;4937830;28;20078;-81
2023/04/26 00:04:38;;;;;;;2.67;1.58;;;10.50;45.40;;;;;;4937101;28;20344;-81
2023/04/26 00:07:05;;;;;;;3.80;1.73;;;10.50;45.50;;;;;;4961004;28;20132;-83
2023/04/26 00:09:31;;;;;;;2.33;1.83;;;10.50;45.50;;;;;;4951496;28;20486;-80
2023/04/26 00:11:57;;;;;;;4.32;1.58;;;10.40;45.40;;;;;;4941050;28;20031;-81
2023/04/26 00:14:23;;;;;;;5.63;2.10;;;10.40;45.50;;;;;;4936034;28;20483;-81
2023/04/26 00:16:49;;;;;;;2.65;1.95;;;10.40;45.60;;;;;;4950394;28;20118;-81
2023/04/26 00:19:16;;;;;;;3.53;2.30;;;10.40;45.70;;;;;;4951282;28;20437;-81
2023/04/26 00:21:43;;;;;;;3.88;2.10;;;10.30;45.60;;;;;;4953802;28;20117;-81
2023/04/26 00:24:09;;;;;;;4.05;1.98;;;10.40;45.90;;;;;;4935253;28;20566;-80
2023/04/26 00:26:35;;;;;;;3.90;2.20;;;10.30;45.70;;;;;;4953154;28;20109;-81
2023/04/26 00:29:02;;;;;;;3.45;2.15;;;10.30;45.70;;;;;;4938530;28;20051;-82
2023/04/26 00:31:29;;;;;;;5.90;2.20;;;10.30;45.90;;;;;;4941909;28;20041;-82
2023/04/26 00:33:55;;;;;;;3.80;1.92;;;10.30;45.90;;;;;;4937203;28;20284;-83
2023/04/26 00:36:21;;;;;;;5.35;2.60;;;10.30;46.00;;;;;;4944007;28;20035;-83
2023/04/26 00:38:47;;;;;;;5.53;2.58;;;10.20;45.90;;;;;;4938250;28;20402;-82
2023/04/26 00:41:14;;;;;;;3.28;2.10;;;10.20;45.90;;;;;;4941239;28;20051;-82
2023/04/26 00:43:40;;;;;;;3.60;2.20;;;10.20;45.90;;;;;;4929917;28;20488;-83
2023/04/26 00:46:07;;;;;;;4.45;2.20;;;10.20;46.00;;;;;;4927310;28;20507;-85
2023/04/26 00:48:35;;;;;;;7.00;2.38;;;10.20;46.10;;;;;;4933271;28;20054;-82
2023/04/26 00:51:01;;;;;;;3.67;2.40;;;10.20;46.10;;;;;;4941539;28;20140;-82
2023/04/26 00:53:29;;;;;;;4.03;2.35;;;10.20;46.20;;;;;;4941739;28;20844;-82
2023/04/26 00:55:56;;;;;;;3.95;2.60;;;10.10;46.10;;;;;;4934022;28;20043;-82
2023/04/26 00:58:22;;;;;;;5.85;3.00;;;10.10;46.10;;;;;;4944653;28;20502;-83
2023/04/26 01:00:49;;;;;;;4.72;2.42;;;10.10;46.20;;;;;;4937427;28;20031;-83
2023/04/26 01:03:15;;;;;;;4.43;2.05;;;10.10;46.20;;;;;;4940645;28;20066;-82
2023/04/26 01:05:42;;;;;;;4.63;2.50;;;10.10;46.30;;;;;;4939695;28;20073;-83
2023/04/26 01:08:10;;;;;;;6.80;2.53;;;10.00;46.20;;;;;;4943808;28;20047;-86
2023/04/26 01:10:36;;;;;;;3.30;2.50;;;10.00;46.20;;;;;;4957207;28;20348;-83
2023/04/26 01:13:02;;;;;;;2.58;2.35;;;10.00;46.30;;;;;;4948593;28;20039;-85
2023/04/26 01:15:29;;;;;;;4.90;2.67;;;10.00;46.30;;;;;;4935936;28;20399;-82
2023/04/26 01:17:59;;;;;;;5.00;2.38;;;10.00;46.40;;;;;;4945576;28;20117;-82
2023/04/26 01:20:25;;;;;;;5.57;2.20;;;10.00;46.50;;;;;;4948388;28;20058;-84
2023/04/26 01:22:51;;;;;;;6.45;3.28;;;10.00;46.60;;;;;;4930103;28;20043;-83
2023/04/26 01:25:18;;;;;;;6.65;3.55;;;10.00;46.60;;;;;;4936584;28;20086;-82
2023/04/26 01:27:43;;;;;;;6.20;2.30;;;9.90;46.50;;;;;;4931426;28;20506;-83
2023/04/26 01:30:11;;;;;;;4.15;2.40;;;10.00;46.80;;;;;;4943440;28;20035;-83
2023/04/26 01:32:37;;;;;;;2.80;2.50;;;9.90;46.60;;;;;;4939175;28;20103;-83
2023/04/26 01:35:04;;;;;;;6.03;2.65;;;10.00;46.80;;;;;;4935593;28;20043;-84
2023/04/26 01:37:30;;;;;;;4.97;2.15;;;9.90;46.70;;;;;;4941153;28;20042;-81
2023/04/26 01:39:58;;;;;;;4.03;2.15;;;9.90;46.80;;;;;;4937934;28;20055;-81
2023/04/26 01:42:24;;;;;;;4.47;2.20;;;9.90;46.80;;;;;;4940577;28;20154;-80
2023/04/26 01:44:50;;;;;;;3.03;2.10;;;9.90;46.90;;;;;;4938771;28;20458;-80
2023/04/26 01:47:16;;;;;;;4.55;2.38;;;9.90;46.90;;;;;;4942629;28;20057;-81
2023/04/26 01:49:42;;;;;;;5.63;2.45;;;9.90;46.90;;;;;;4938856;28;20024;-80
2023/04/26 01:52:08;;;;;;;5.38;2.42;;;9.90;47.00;;;;;;4961330;28;20038;-80
2023/04/26 01:54:34;;;;;;;4.47;2.30;;;9.90;47.10;;;;;;4953371;28;20367;-80
2023/04/26 01:57:01;;;;;;;7.18;2.92;;;9.80;46.90;;;;;;4943230;28;20038;-82
2023/04/26 01:59:27;;;;;;;4.20;2.38;;;9.90;47.10;;;;;;4945393;28;20042;-83
2023/04/26 02:01:53;;;;;;;6.18;2.70;;;9.80;47.00;;;;;;4946532;28;20073;-82
2023/04/26 02:04:19;;;;;;;4.68;2.35;;;9.80;47.00;;;;;;4945258;28;20032;-84
2023/04/26 02:06:45;;;;;;;6.45;2.50;;;9.80;47.10;;;;;;4944003;29;20027;-83
2023/04/26 02:09:11;;;;;;;4.30;2.72;;;9.80;47.10;;;;;;4939660;28;20484;-82
2023/04/26 02:11:39;;;;;;;4.18;2.65;;;9.80;47.20;;;;;;4943787;28;20039;-82
2023/04/26 02:14:05;;;;;;;5.65;2.95;;;9.80;47.20;;;;;;4956888;28;20043;-82
2023/04/26 02:16:31;;;;;;;3.97;2.13;;;9.80;47.30;;;;;;4940038;28;20145;-82
2023/04/26 02:18:58;;;;;;;3.55;2.53;;;9.80;47.30;;;;;;4963913;28;20126;-81
2023/04/26 02:21:25;;;;;;;3.92;2.75;;;9.80;47.40;;;;;;4945224;28;20086;-81
2023/04/26 02:23:52;;;;;;;4.07;2.60;;;9.80;47.50;;;;;;4956329;28;20035;-83
2023/04/26 02:26:18;;;;;;;5.15;2.13;;;9.80;47.50;;;;;;4927650;29;20059;-82
2023/04/26 02:28:44;;;;;;;3.38;2.08;;;9.80;47.60;;;;;;4954445;28;20380;-82
2023/04/26 02:31:10;;;;;;;4.82;2.72;;;9.80;47.60;;;;;;4967814;28;20094;-81
2023/04/26 02:33:36;;;;;;;3.63;2.45;;;9.80;47.60;;;;;;4951768;28;20024;-80
2023/04/26 02:36:06;;;;;;;4.45;2.60;;;9.70;47.50;;;;;;4951262;28;20071;-81
2023/04/26 02:38:34;;;;;;;5.07;2.72;;;9.70;47.60;;;;;;4943789;28;20117;-82
2023/04/26 02:41:01;;;;;;;2.88;2.30;;;9.70;47.60;;;;;;4956914;28;20476;-82
2023/04/26 02:43:27;;;;;;;5.53;2.85;;;9.70;47.70;;;;;;4946050;28;20031;-81
2023/04/26 02:45:54;;;;;;;5.13;3.00;;;9.70;47.70;;;;;;4953152;28;20043;-81
2023/04/26 02:48:20;;;;;;;4.28;2.70;;;9.70;47.80;;;;;;4960568;28;20162;-84
2023/04/26 02:50:46;;;;;;;5.82;2.78;;;9.70;47.80;;;;;;4960227;28;20543;-84
2023/04/26 02:53:16;;;;;;;6.20;2.90;;;9.70;47.90;;;;;;4960155;28;20474;-82
2023/04/26 02:55:42;;;;;;;8.05;3.45;;;9.60;47.80;;;;;;4939725;28;20042;-82
2023/04/26 02:58:08;;;;;;;3.25;2.90;;;9.60;47.80;;;;;;4965157;28;20065;-81
2023/04/26 03:00:34;;;;;;;5.88;3.05;;;9.60;47.80;;;;;;4959452;28;20058;-83
2023/04/26 03:03:01;;;;;;;5.13;3.00;;;9.60;47.90;;;;;;4957197;28;20137;-89
2023/04/26 03:05:27;;;;;;;4.40;3.15;;;9.60;47.90;;;;;;4950866;28;20054;-80
2023/04/26 03:07:53;;;;;;;3.30;3.00;;;9.60;48.00;;;;;;4965584;28;20043;-81
2023/04/26 03:10:19;;;;;;;5.07;2.72;;;9.60;48.10;;;;;;4968651;28;20020;-81
2023/04/26 03:12:45;;;;;;;4.70;2.42;;;9.60;48.10;;;;;;4967122;28;20019;-80
2023/04/26 03:15:11;;;;;;;5.38;2.67;;;9.60;48.20;;;;;;4973405;28;20019;-80
2023/04/26 03:17:39;;;;;;;3.67;2.53;;;9.60;48.20;;;;;;4971445;28;20103;-80
2023/04/26 03:20:06;;;;;;;5.13;2.72;;;9.50;48.10;;;;;;4982289;28;20051;-79
2023/04/26 03:22:32;;;;;;;5.07;2.60;;;9.60;48.30;;;;;;4941982;28;20096;-79
2023/04/26 03:24:58;;;;;;;4.10;2.70;;;9.50;48.10;;;;;;4941489;28;20036;-80
2023/04/26 03:27:27;;;;;;;5.25;2.90;;;9.50;48.10;;;;;;4956765;28;20043;-80
2023/04/26 03:29:53;;;;;;;3.92;2.80;;;9.60;48.40;;;;;;4949437;29;20069;-80
2023/04/26 03:32:19;;;;;;;5.93;2.65;;;9.50;48.20;;;;;;4961109;28;20134;-77
2023/04/26 03:34:47;;;;;;;5.93;2.85;;;9.50;48.20;;;;;;4955582;28;20031;-77
2023/04/26 03:37:13;;;;;;;4.88;2.78;;;9.50;48.20;;;;;;4958844;28;20054;-77
2023/04/26 03:39:40;;;;;;;6.45;2.63;;;9.50;48.30;;;;;;4964427;28;20039;-77
2023/04/26 03:42:07;;;;;;;5.18;3.45;;;9.50;48.30;;;;;;4952927;28;20054;-79
2023/04/26 03:44:34;;;;;;;4.93;3.00;;;9.50;48.30;;;;;;4966380;28;20030;-79
2023/04/26 03:47:00;;;;;;;4.53;2.58;;;9.50;48.40;;;;;;4960024;28;20134;-80
2023/04/26 03:49:26;;;;;;;3.72;2.83;;;9.40;48.30;;;;;;4955517;28;20039;-78
2023/04/26 03:51:52;;;;;;;4.97;2.95;;;9.40;48.30;;;;;;4945825;28;20087;-83
2023/04/26 03:54:18;;;;;;;6.88;3.10;;;9.40;48.30;;;;;;4963768;28;20041;-82
2023/04/26 03:56:44;;;;;;;6.25;3.30;;;9.40;48.40;;;;;;4952022;28;20043;-81
2023/04/26 03:59:11;;;;;;;7.15;2.88;;;9.40;48.50;;;;;;4961967;28;20063;-82
2023/04/26 04:01:37;;;;;;;3.92;2.88;;;9.40;48.50;;;;;;4946158;28;20037;-80
2023/04/26 04:04:04;;;;;;;4.80;2.83;;;9.40;48.50;;;;;;4965423;28;20149;-80
2023/04/26 04:06:31;;;;;;;5.53;3.60;;;9.40;48.60;;;;;;4959828;28;20162;-80
2023/04/26 04:08:57;;;;;;;5.88;3.45;;;9.30;48.40;;;;;;4930331;28;20031;-81
2023/04/26 04:11:23;;;;;;;7.05;3.17;;;9.30;48.50;;;;;;4941672;28;20495;-82
2023/04/26 04:13:50;;;;;;;5.78;3.85;;;9.30;48.50;;;;;;4947041;29;20098;-80
2023/04/26 04:16:16;;;;;;;4.28;2.90;;;9.30;48.50;;;;;;4947180;28;20039;-78
2023/04/26 04:18:42;;;;;;;5.85;3.30;;;9.30;48.50;;;;;;4939129;29;20310;-80
2023/04/26 04:21:08;;;;;;;4.22;3.05;;;9.30;48.60;;;;;;4946279;28;20031;-79
2023/04/26 04:23:34;;;;;;;7.35;3.45;;;9.30;48.60;;;;;;4946854;28;20039;-84
2023/04/26 04:26:05;;;;;;;3.60;2.17;;;9.30;48.60;;;;;;4943684;28;20488;-81
2023/04/26 04:28:33;;;;;;;8.40;3.58;;;9.30;48.70;;;;;;4947051;28;20043;-83
2023/04/26 04:31:00;;;;;;;3.25;2.75;;;9.20;48.50;;;;;;4947562;28;20027;-81
2023/04/26 04:33:29;;;;;;;3.92;2.70;;;9.30;48.70;;;;;;4954146;28;20042;-81
2023/04/26 04:36:16;;;;;;;5.18;3.22;;;9.20;48.60;;;;;;4931402;29;20046;-82
2023/04/26 04:38:43;;;;;;;3.08;2.55;;;9.20;48.60;;;;;;4942584;28;20367;-82
2023/04/26 04:41:10;;;;;;;5.82;2.67;;;9.20;48.60;;;;;;4943338;29;20054;-82
2023/04/26 04:43:36;;;;;;;6.15;2.85;;;9.20;48.70;;;;;;4956671;28;20047;-83
2023/04/26 04:46:02;;;;;;;5.45;3.30;;;9.20;48.70;;;;;;4947207;28;20035;-83
2023/04/26 04:48:28;;;;;;;6.15;2.83;;;9.20;48.80;;;;;;4941805;29;20043;-83
2023/04/26 04:50:55;;;;;;;7.95;3.80;;;9.20;48.80;;;;;;4942102;28;20031;-80
2023/04/26 04:53:21;;;;;;;4.85;3.13;;;9.20;48.90;;;;;;4942229;29;20229;-81
2023/04/26 04:55:48;;;;;;;4.07;2.22;;;9.20;48.90;;;;;;4944033;28;20058;-81
2023/04/26 04:58:16;;;;;;;4.15;2.88;;;9.20;48.90;;;;;;4948357;28;20077;-82
2023/04/26 05:00:44;;;;;;;3.38;2.78;;;9.20;48.90;;;;;;4940768;28;20036;-85
2023/04/26 05:03:24;;;;;;;4.45;2.92;;;9.20;48.90;;;;;;4940499;28;20514;-78
2023/04/26 05:05:50;;;;;;;4.28;3.38;;;9.20;48.90;;;;;;4941508;28;20058;-82
2023/04/26 05:08:16;;;;;;;4.93;2.83;;;9.20;48.90;;;;;;4939667;28;20122;-81
2023/04/26 05:10:43;;;;;;;5.57;2.75;;;9.20;48.90;;;;;;4934586;29;20456;-78
2023/04/26 05:13:10;;;;;;;5.43;2.97;;;9.20;48.90;;;;;;4936323;28;20383;-79
2023/04/26 05:15:37;;;;;;;4.25;3.40;;;9.20;48.90;;;;;;4941388;28;20035;-79
2023/04/26 05:18:03;;;;;;;6.25;3.05;;;9.20;48.90;;;;;;4934575;28;20255;-80
2023/04/26 05:20:30;;;;;;;6.68;3.28;;;9.30;49.10;;;;;;4915893;29;20063;-77
2023/04/26 05:22:55;;;;;;;6.60;3.40;;;9.30;49.10;;;;;;4950667;28;20058;-77
2023/04/26 05:25:21;;;;;;;4.75;3.17;;;9.30;49.10;;;;;;4930575;28;20619;-78
2023/04/26 05:27:50;;;;;;;4.95;3.40;;;9.30;49.10;;;;;;4919924;29;20042;-83
2023/04/26 05:30:33;;;;;;;;;;;9.30;49.10;;;;;;4926622;29;20164;-81
2023/04/26 05:33:06;;;;;;;5.18;3.22;;;9.30;49.50;;;;;;4934041;28;19914;-78
2023/04/26 05:35:41;;;;;;;8.38;3.30;;;9.40;49.00;;;;;;4935191;29;20038;-77
2023/04/26 05:38:07;;;;;;;5.88;3.05;;;9.30;48.80;;;;;;4937082;28;20035;-79
2023/04/26 05:40:33;;;;;;;7.78;3.70;;;9.30;49.40;;;;;;4930302;29;20188;-79
2023/04/26 05:42:59;;;;;;;10.95;3.70;;;9.30;48.80;;;;;;4937528;28;20043;-79
2023/04/26 05:45:26;;;;;;;4.50;2.50;;;9.40;49.00;;;;;;4936649;28;20507;-80
2023/04/26 05:47:52;;;;;;;4.72;3.35;;;9.40;49.00;;;;;;4934166;28;20053;-80
2023/04/26 05:50:18;;;;;;;5.72;3.35;;;9.40;49.00;;;;;;4924087;29;20615;-81
2023/04/26 05:52:44;;;;;;;7.22;3.33;;;9.40;49.00;;;;;;4935636;28;20039;-79
2023/04/26 05:55:12;;;;;;;3.97;3.33;;;9.40;48.90;;;;;;4934020;28;20490;-79
2023/04/26 05:57:38;;;;;;;6.50;3.60;;;9.50;49.10;;;;;;4935967;28;20137;-79
2023/04/26 06:00:08;;;;;;;8.43;3.47;;;9.50;49.00;;;;;;4938535;28;20035;-79
2023/04/26 06:02:40;;;;;;;5.18;2.75;;;9.60;49.20;;;;;;4930082;28;20066;-79
2023/04/26 06:05:10;;;;;;;5.82;3.20;;;9.60;49.10;;;;;;4933916;28;20028;-80
2023/04/26 06:07:36;;;;;;;7.10;2.92;;;9.70;49.30;;;;;;4940810;28;20051;-78
2023/04/26 06:10:03;;;;;;;6.80;3.00;;;9.70;49.50;;;;;;4941158;28;20735;-81
2023/04/26 06:12:30;;;;;;;7.43;3.60;;;9.80;49.80;;;;;;4938643;28;20097;-78
2023/04/26 06:14:57;;;;;;;4.28;2.63;;;9.90;50.20;;;;;;4955291;28;20045;-77
2023/04/26 06:17:26;;;;;;;6.00;3.10;;;10.10;51.20;;;;;;4942598;28;20126;-76
2023/04/26 06:19:51;;;;;;;9.43;4.00;;;10.20;51.70;;;;;;4939627;28;20031;-76
2023/04/26 06:22:17;;;;;;;4.05;2.50;;;10.40;52.20;;;;;;4935423;28;20035;-76
2023/04/26 06:24:43;;;;;;;4.90;2.40;;;10.50;52.40;;;;;;4935251;28;20521;-77
2023/04/26 06:27:09;;;;;;;4.18;2.58;;;10.60;52.70;;;;;;4935499;28;20037;-77
2023/04/26 06:29:37;;;;;;;7.22;3.08;;;10.70;52.80;;;;;;4938591;28;20106;-77
2023/04/26 06:32:03;;;;;;;4.43;2.45;;;10.80;53.10;;;;;;4939090;28;20050;-76
2023/04/26 06:34:29;;;;;;;4.53;3.45;;;10.90;53.30;;;;;;4935398;28;20507;-76
2023/04/26 06:36:55;;;;;;;5.20;2.53;;;11.00;53.50;;;;;;4945057;28;20039;-84
2023/04/26 06:39:23;;;;;;;5.50;2.63;;;11.20;54.20;;;;;;4945359;28;20071;-85
2023/04/26 06:41:49;;;;;;;3.05;2.40;;;11.50;54.60;;;;;;4943405;28;20030;-85
2023/04/26 06:44:25;;;;;;;6.95;2.58;;;11.80;54.90;;;;;;4928463;29;20264;-86
2023/04/26 06:46:54;;;;;;;4.40;2.63;;;12.10;55.00;;;;;;4936715;28;20187;-86
2023/04/26 06:49:20;;;;;;;3.33;2.35;;;12.40;55.30;;;;;;4941664;28;20378;-86
2023/04/26 06:51:46;;;;;;;6.43;3.05;;;12.80;55.60;;;;;;4941160;28;20050;-85
2023/04/26 06:54:12;;;;;;;5.10;2.35;;;13.10;55.70;;;;;;4940896;28;20039;-85
2023/04/26 06:56:38;;;;;;;3.65;2.10;;;13.60;56.20;;;;;;4925009;29;20101;-83
2023/04/26 06:59:06;;;;;;;3.65;1.92;;;14.10;56.30;;;;;;4940680;28;20035;-81
2023/04/26 07:01:33;;;;;;;4.38;2.08;;;14.70;56.40;;;;;;4940991;28;20047;-84
2023/04/26 07:04:02;;;;;;;3.03;2.00;;;15.40;57.20;;;;;;4942624;28;20031;-84
2023/04/26 07:06:28;;;;;;;4.78;1.88;;;15.90;55.70;;;;;;4944582;28;20027;-84
2023/04/26 07:08:55;;;;;;;3.00;1.73;;;16.30;55.30;;;;;;4936837;28;20082;-81
2023/04/26 07:11:21;;;;;;;3.30;1.95;;;16.60;54.80;;;;;;4937452;28;20539;-77
2023/04/26 07:13:47;;;;;;;3.88;2.08;;;16.80;54.40;;;;;;4938176;28;20031;-80
2023/04/26 07:16:14;;;;;;;4.05;2.42;;;17.00;54.20;;;;;;4942074;28;20091;-82
2023/04/26 07:18:41;;;;;;;5.00;2.13;;;16.90;53.60;;;;;;4939753;28;20555;-82
2023/04/26 07:21:07;;;;;;;2.28;1.70;;;16.80;53.20;;;;;;4938154;28;20479;-76
2023/04/26 07:23:33;;;;;;;3.85;2.15;;;16.60;52.90;;;;;;4940813;28;20079;-76
2023/04/26 07:26:03;;;;;;;2.72;1.83;;;16.50;52.80;;;;;;4939488;28;20027;-77
2023/04/26 07:28:30;;;;;;;5.38;2.25;;;16.30;52.60;;;;;;4937256;28;20066;-77
2023/04/26 07:31:00;;;;;;;4.70;1.80;;;16.20;52.40;;;;;;4938340;28;20486;-77
2023/04/26 07:33:26;;;;;;;4.07;2.13;;;16.10;52.30;;;;;;4934199;28;20389;-76
2023/04/26 07:35:56;;;;;;;4.43;2.40;;;16.00;52.10;;;;;;4942224;28;20049;-76
2023/04/26 07:38:23;;;;;;;6.03;2.70;;;16.00;52.10;;;;;;4939627;28;20039;-76
2023/04/26 07:40:49;;;;;;;4.53;2.33;;;15.90;51.80;;;;;;4943276;28;20495;-79
2023/04/26 07:43:16;;;;;;;4.65;2.53;;;15.90;51.60;;;;;;4934152;28;20636;-81
2023/04/26 07:45:42;;;;;;;6.15;2.90;;;15.90;51.50;;;;;;4939674;28;20028;-76
2023/04/26 07:48:08;;;;;;;4.20;2.38;;;16.00;52.10;;;;;;4941660;28;20043;-77
2023/04/26 07:50:35;;;;;;;3.15;2.25;;;16.00;51.20;;;;;;4938188;28;20069;-77
2023/04/26 07:53:00;;;;;;;6.47;3.22;;;16.10;51.20;;;;;;4933871;28;20032;-77
2023/04/26 07:55:26;;;;;;;3.97;2.13;;;16.10;51.00;;;;;;4940203;28;20186;-77
2023/04/26 07:57:52;;;;;;;4.45;2.42;;;16.10;50.90;;;;;;4936699;28;20047;-77
2023/04/26 08:00:21;;;;;;;4.30;2.65;;;16.20;50.80;;;;;;4938315;28;20507;-77
2023/04/26 08:02:47;;;;;;;5.93;2.13;;;16.30;50.60;;;;;;4918434;29;20411;-77
2023/04/26 08:05:14;;;;;;;4.30;2.13;;;16.50;50.90;;;;;;4939749;28;20126;-79
2023/04/26 08:07:43;;;;;;;5.53;2.10;;;16.80;51.40;;;;;;4938036;28;20027;-78
2023/04/26 08:10:09;;;;;;;5.53;2.00;;;17.00;51.60;;;;;;4933823;28;20111;-79
2023/04/26 08:12:37;;;;;;;4.22;2.38;;;17.20;51.60;;;;;;4935900;28;20046;-80
2023/04/26 08:15:04;;;;;;;6.20;2.05;;;17.40;51.60;;;;;;4939649;28;20126;-84
2023/04/26 08:17:31;;;;;;;6.03;2.78;;;17.50;51.50;;;;;;4936870;28;20039;-80
2023/04/26 08:19:57;;;;;;;5.53;2.20;;;17.60;51.60;;;;;;4933146;28;20148;-80
2023/04/26 08:22:24;;;;;;;4.03;2.28;;;17.70;52.10;;;;;;4934189;28;20361;-79
2023/04/26 08:24:53;;;;;;;3.55;1.60;;;17.80;52.40;;;;;;4935328;28;20058;-79
2023/04/26 08:27:20;;;;;;;4.65;2.13;;;17.90;52.60;;;;;;4935404;28;20042;-79
2023/04/26 08:29:46;;;;;;;3.20;1.75;;;18.00;52.80;;;;;;4938280;28;20039;-80
2023/04/26 08:32:12;;;;;;;3.72;1.83;;;18.20;53.30;;;;;;4944581;28;20091;-80
2023/04/26 08:34:38;;;;;;;2.03;1.60;;;18.40;53.50;;;;;;4956903;28;20070;-78
2023/04/26 08:37:06;;;;;;;5.75;1.95;;;18.50;53.50;;;;;;4948246;28;20122;-78
2023/04/26 08:39:32;;;;;;;3.88;1.80;;;18.70;53.70;;;;;;4950146;28;20055;-79
2023/04/26 08:42:13;;;;;;;3.50;1.67;;;18.80;53.70;;;;;;4961327;28;20027;-80
2023/04/26 08:44:41;;;;;;;3.00;2.00;;;19.00;53.80;;;;;;4964318;28;20101;-79
2023/04/26 08:47:17;;;;;;;3.20;1.55;;;19.20;53.90;;;;;;4948679;28;20095;-79
2023/04/26 08:49:46;;;;;;;3.95;2.67;;;19.30;53.80;;;;;;4940770;28;20621;-82
2023/04/26 08:52:14;;;;;;;5.88;2.38;;;19.50;53.60;;;;;;4936964;28;20031;-82
2023/04/26 08:54:40;;;;;;;2.72;2.03;;;19.60;53.10;;;;;;4947700;28;20039;-82
2023/04/26 08:57:07;;;;;;;3.45;2.15;;;19.90;53.20;;;;;;4939022;28;20415;-83
2023/04/26 08:59:37;;;;;;;3.30;2.00;;;20.00;53.00;;;;;;4941241;28;20109;-79
2023/04/26 09:02:08;;;;;;;8.43;2.30;;;20.10;52.70;;;;;;4933745;29;20431;-79
2023/04/26 09:04:36;;;;;;;7.53;2.03;;;20.10;52.10;;;;;;4936890;28;20121;-80
2023/04/26 09:07:03;;;;;;;5.18;2.20;;;20.10;52.00;;;;;;4931987;28;20348;-86
2023/04/26 09:09:40;;;;;;;4.97;2.38;;;20.10;51.90;;;;;;4939059;28;20033;-86
2023/04/26 09:12:07;;;;;;;3.42;2.00;;;20.00;51.50;;;;;;4933891;28;20034;-86
2023/04/26 09:14:34;;;;;;;4.00;2.03;;;20.10;51.70;;;;;;4937702;28;20648;-92
2023/04/26 09:17:00;;;;;;;2.83;2.00;;;20.20;51.60;;;;;;4927596;29;20043;-93
2023/04/26 09:19:46;;;;;;;6.03;2.13;;;20.30;51.50;;;;;;4950929;28;20035;-89
2023/04/26 09:22:12;;;;;;;4.80;2.38;;;20.30;51.30;;;;;;4920222;28;20051;-79
2023/04/26 09:24:56;;;;;;;5.18;2.13;;;20.40;51.00;;;;;;4931518;28;20306;-78
2023/04/26 09:27:38;;;;;;;5.82;2.83;;;20.50;50.70;;;;;;4937611;28;20031;-78
2023/04/26 09:30:09;;;;;;;4.75;2.78;;;20.70;50.90;;;;;;4936928;28;20097;-80
2023/04/26 09:32:53;;;;;;;3.50;2.67;;;20.80;50.70;;;;;;4938956;28;20051;-88
2023/04/26 09:35:34;;;;;;;5.68;2.65;;;20.90;50.10;;;;;;4935147;28;20040;-84
2023/04/26 09:38:06;;;;;;;8.00;2.92;;;21.00;49.90;;;;;;4932452;28;20035;-86
2023/04/26 09:40:58;;;;;;;4.82;2.60;;;21.10;50.00;;;;;;4935962;28;20044;-86
2023/04/26 09:43:24;;;;;;;5.40;2.60;;;21.20;49.80;;;;;;4934033;28;20051;-82
2023/04/26 09:45:55;;;;;;;7.30;3.60;;;21.40;49.90;;;;;;4935707;28;20031;-82
2023/04/26 09:48:30;;;;;;;4.22;2.67;;;21.50;49.50;;;;;;4934495;28;20039;-84
2023/04/26 09:51:09;;;;;;;7.90;3.42;;;21.70;49.50;;;;;;4920904;28;20162;-84
2023/04/26 09:53:41;;;;;;;6.18;3.50;;;21.80;49.20;;;;;;4930150;28;20028;-82
2023/04/26 09:56:10;;;;;;;5.80;2.70;;;21.90;49.20;;;;;;4933400;28;20530;-81
2023/04/26 09:58:58;;;;;;;10.68;3.45;;;22.00;49.10;;;;;;4931272;28;20036;-81
2023/04/26 10:01:27;;;;;;;5.25;2.85;;;22.10;49.00;;;;;;4938348;28;20399;-82
2023/04/26 10:03:54;;;;;;;4.38;3.22;;;22.10;48.80;;;;;;4936394;28;20047;-84
2023/04/26 10:06:20;;;;;;;7.43;2.63;;;22.10;48.60;;;;;;4941853;28;20027;-81
2023/04/26 10:08:46;;;;;;;4.32;2.88;;;22.10;48.50;;;;;;4942141;28;20472;-81
2023/04/26 10:11:12;;;;;;;6.05;3.25;;;22.20;48.50;;;;;;4940260;28;20560;-81
2023/04/26 10:13:40;;;;;;;4.72;2.92;;;22.10;48.30;;;;;;4937433;28;20039;-79
2023/04/26 10:16:08;;;;;;;4.72;2.75;;;22.20;48.30;;;;;;4937137;28;20081;-79
2023/04/26 10:18:34;;;;;;;8.05;2.83;;;22.20;48.20;;;;;;4938188;28;20023;-79
2023/04/26 10:21:16;;;;;;;4.70;3.03;;;22.30;48.20;;;;;;4932684;28;20080;-79
2023/04/26 10:23:43;;;;;;;5.38;2.78;;;22.30;47.90;;;;;;4948140;28;20054;-83
2023/04/26 10:26:52;;;;;;;5.78;3.20;;;22.40;48.20;;;;;;4918973;29;20089;-81
2023/04/26 10:29:22;;;;;;;9.50;4.07;;;22.30;47.70;;;;;;4930711;28;20124;-79
2023/04/26 10:32:08;;;;;;;6.55;2.88;;;22.30;47.90;;;;;;4947789;28;20042;-80
2023/04/26 10:34:37;;;;;;;6.75;3.05;;;22.30;47.80;;;;;;4938463;28;20035;-81
2023/04/26 10:37:07;;;;;;;6.88;2.80;;;22.40;48.00;;;;;;4933272;28;20043;-83
2023/04/26 10:39:35;;;;;;;5.28;2.85;;;22.40;47.80;;;;;;4934259;28;20072;-80
2023/04/26 10:42:26;;;;;;;7.90;3.72;;;22.40;47.80;;;;;;4935559;28;20031;-80
2023/04/26 10:44:54;;;;;;;9.05;4.35;;;22.40;47.50;;;;;;4936745;28;20527;-82
2023/04/26 10:47:22;;;;;;;5.20;3.17;;;22.50;47.70;;;;;;4920051;29;20047;-84
2023/04/26 10:49:49;;;;;;;4.60;3.03;;;22.50;47.60;;;;;;4939640;28;20046;-86
2023/04/26 10:52:21;;;;;;;5.43;2.67;;;22.50;47.50;;;;;;4942799;28;20035;-85
2023/04/26 10:55:06;;;;;;;6.90;3.35;;;22.50;47.70;;;;;;4938432;28;20031;-84
2023/04/26 10:57:50;;;;;;;7.88;4.15;;;22.60;47.20;;;;;;4928894;29;20043;-88
2023/04/26 11:00:18;;;;;;;6.80;3.88;;;22.50;46.70;;;;;;4940702;28;20542;-85
2023/04/26 11:03:01;;;;;;;7.95;4.72;;;22.40;46.60;;;;;;4939861;28;20078;-88
2023/04/26 11:05:52;;;;;;;11.95;5.32;;;22.30;45.70;;;;;;4940284;28;20043;-88
2023/04/26 11:08:30;;;;;;;7.32;4.95;;;22.10;45.40;;;;;;4946572;28;20129;-88
2023/04/26 11:11:02;;;;;;;9.43;5.60;;;22.00;45.20;;;;;;4940482;28;20502;-87
2023/04/26 11:13:36;;;;;;;11.10;5.43;;;21.90;45.00;;;;;;4943957;28;20289;-87
2023/04/26 11:16:09;;;;;;;8.23;4.65;;;21.80;44.80;;;;;;4938391;28;20258;-82
2023/04/26 11:18:37;;;;;;;10.30;5.95;;;21.70;44.50;;;;;;4939693;28;20129;-88
2023/04/26 11:21:05;;;;;;;10.82;5.18;;;21.70;44.50;;;;;;4941772;28;20400;-90
2023/04/26 11:23:31;;;;;;;9.45;5.57;;;21.60;44.20;;;;;;4934761;28;20054;-91
2023/04/26 11:25:59;;;;;;;10.77;4.97;;;21.60;44.20;;;;;;4933850;28;20506;-78
2023/04/26 11:28:25;;;;;;;8.13;4.72;;;21.50;43.90;;;;;;4937677;28;20039;-81
2023/04/26 11:30:51;;;;;;;9.23;5.50;;;21.50;43.90;;;;;;4933161;28;20553;-81
2023/04/26 11:33:19;;;;;;;12.88;5.53;;;21.50;43.80;;;;;;4935603;28;20096;-83
2023/04/26 11:35:46;;;;;;;11.63;6.28;;;21.50;43.80;;;;;;4942382;28;20244;-85
2023/04/26 11:38:13;;;;;;;10.40;5.45;;;21.40;43.50;;;;;;4940897;28;20038;-84
2023/04/26 11:40:40;;;;;;;11.75;5.28;;;21.40;43.50;;;;;;4934253;28;20423;-83
2023/04/26 11:43:07;;;;;;;9.15;5.10;;;21.30;43.30;;;;;;4935598;28;20043;-80
2023/04/26 11:45:37;;;;;;;8.02;4.95;;;21.30;43.50;;;;;;4940589;28;20225;-80
2023/04/26 11:48:09;;;;;;;8.73;4.65;;;21.10;43.20;;;;;;4938657;28;20058;-80
2023/04/26 11:50:36;;;;;;;7.30;5.50;;;21.10;43.40;;;;;;4940523;28;20046;-79
2023/04/26 11:53:05;;;;;;;11.80;6.15;;;21.00;43.30;;;;;;4934299;28;20277;-77
2023/04/26 11:55:35;;;;;;;8.55;5.20;;;21.00;43.30;;;;;;4935162;28;20118;-81
2023/04/26 11:58:10;;;;;;;9.68;4.95;;;20.90;43.20;;;;;;4935058;28;20027;-78
2023/04/26 12:00:36;;;;;;;8.48;4.22;;;21.00;43.60;;;;;;4937511;28;20035;-77
2023/04/26 12:03:10;;;;;;;8.80;5.25;;;21.00;43.90;;;;;;4937279;28;20035;-83
2023/04/26 12:05:36;;;;;;;6.18;4.45;;;21.10;44.20;;;;;;4930446;29;20039;-85
2023/04/26 12:08:02;;;;;;;8.32;4.68;;;21.30;44.50;;;;;;4934231;28;20114;-87
2023/04/26 12:10:34;;;;;;;8.23;4.45;;;21.40;44.60;;;;;;4938781;28;20487;-86
2023/04/26 12:13:01;;;;;;;7.05;4.75;;;21.60;44.90;;;;;;4935604;28;20027;-84
2023/04/26 12:15:32;;;;;;;9.52;5.25;;;21.70;45.00;;;;;;4928039;29;20268;-83
2023/04/26 12:18:09;;;;;;;7.75;4.35;;;21.80;45.00;;;;;;4940364;28;20418;-84
2023/04/26 12:20:41;;;;;;;7.63;4.15;;;21.90;45.10;;;;;;4936340;28;20082;-89
2023/04/26 12:23:07;;;;;;;9.15;4.85;;;22.00;45.30;;;;;;4948388;28;20293;-86
2023/04/26 12:25:35;;;;;;;10.23;3.90;;;22.20;45.60;;;;;;4931527;29;20518;-88
2023/04/26 12:28:04;;;;;;;6.63;4.40;;;22.40;45.70;;;;;;4939967;28;20031;-88
2023/04/26 12:30:30;;;;;;;7.07;3.90;;;22.70;45.90;;;;;;4938204;28;20532;-88
2023/04/26 12:33:02;;;;;;;6.82;4.05;;;23.00;46.10;;;;;;4936186;28;20331;-85
2023/04/26 12:35:29;;;;;;;6.53;4.45;;;23.30;46.30;;;;;;4939473;28;20043;-86
2023/04/26 12:37:55;;;;;;;8.38;4.47;;;23.50;46.30;;;;;;4937021;28;20360;-86
2023/04/26 12:40:25;;;;;;;6.18;3.95;;;23.80;46.50;;;;;;4938729;28;20299;-86
2023/04/26 12:42:52;;;;;;;6.32;4.00;;;24.10;46.60;;;;;;4936509;28;20055;-88
2023/04/26 12:45:18;;;;;;;9.35;4.60;;;24.30;46.60;;;;;;4935404;28;20035;-81
2023/04/26 12:47:45;;;;;;;8.50;3.65;;;24.50;46.60;;;;;;4936918;28;20059;-83
2023/04/26 12:50:12;;;;;;;7.88;4.10;;;24.60;46.50;;;;;;4939117;28;20085;-81
2023/04/26 12:52:42;;;;;;;6.05;3.90;;;24.80;46.60;;;;;;4939446;28;20035;-83
2023/04/26 12:55:10;;;;;;;8.82;4.72;;;25.10;46.60;;;;;;4934145;28;20110;-82
2023/04/26 12:57:37;;;;;;;7.97;4.40;;;25.30;46.40;;;;;;4939272;28;20059;-78